createdAt,value
2019-04-25T00:00:46.474Z,96672.43
2019-04-25T00:03:15.655Z,96676.55
2019-04-25T00:05:43.530Z,96673.59
2019-04-25T00:08:11.501Z,96667.90
2019-04-25T00:10:39.226Z,96662.63
2019-04-25T00:13:06.707Z,96649.33
2019-04-25T00:15:34.171Z,96654.03
2019-04-25T00:18:02.354Z,96653.48
2019-04-25T00:20:31.849Z,96655.50
2019-04-25T00:23:09.641Z,96645.56
2019-04-25T00:25:46.800Z,96647.36
2019-04-25T00:28:13.876Z,96644.99
2019-04-25T00:30:43.299Z,96649.11
2019-04-25T00:33:11.540Z,96642.24
2019-04-25T00:35:39.035Z,96644.61
2019-04-25T00:38:06.119Z,96642.45
2019-04-25T00:40:33.379Z,96636.75
2019-04-25T00:43:01.623Z,96641.08
2019-04-25T00:45:29.069Z,96644.41
2019-04-25T00:47:56.406Z,96642.41
2019-04-25T00:50:23.547Z,96645.73
2019-04-25T00:52:52.205Z,96655.08
2019-04-25T00:55:26.867Z,96652.92
2019-04-25T00:57:52.519Z,96657.67
2019-04-25T01:00:25.612Z,96664.56
2019-04-25T01:02:54.747Z,96662.24
2019-04-25T01:05:22.322Z,96655.63
2019-04-25T01:07:50.103Z,96654.05
2019-04-25T01:10:17.771Z,96652.06
2019-04-25T01:12:44.994Z,96664.20
2019-04-25T01:15:12.659Z,96658.91
2019-04-25T01:17:41.335Z,96654.21
2019-04-25T01:20:09.531Z,96655.76
2019-04-25T01:22:36.706Z,96649.73
2019-04-25T01:25:08.927Z,96652.06
2019-04-25T01:27:36.883Z,96652.64
2019-04-25T01:30:08.035Z,96657.34
2019-04-25T01:32:37.349Z,96645.78
2019-04-25T01:43:09.139Z,96651.94
2019-04-25T01:45:36.799Z,96654.30
2019-04-25T01:48:04.614Z,96656.46
2019-04-25T01:50:33.186Z,96655.84
2019-04-25T01:53:03.308Z,96649.94
2019-04-25T01:55:30.825Z,96650.09
2019-04-25T01:57:58.083Z,96644.57
2019-04-25T02:00:36.155Z,96654.75
2019-04-25T02:03:05.103Z,96653.38
2019-04-25T02:05:33.827Z,96648.85
2019-04-25T02:08:04.415Z,96641.61
2019-04-25T02:10:34.398Z,96639.45
2019-04-25T02:13:05.459Z,96653.50
2019-04-25T02:15:33.494Z,96656.45
2019-04-25T02:18:01.806Z,96657.24
2019-04-25T02:20:29.996Z,96658.25
2019-04-25T02:22:57.928Z,96653.80
2019-04-25T02:25:25.279Z,96652.27
2019-04-25T02:27:53.393Z,96660.13
2019-04-25T02:30:25.265Z,96663.28
2019-04-25T02:32:55.397Z,96663.66
2019-04-25T02:35:21.701Z,96666.02
2019-04-25T02:37:49.080Z,96674.80
2019-04-25T02:40:19.278Z,96663.40
2019-04-25T02:42:46.784Z,96664.72
2019-04-25T02:45:34.399Z,96667.01
2019-04-25T02:48:07.351Z,96665.00
2019-04-25T02:50:36.292Z,96664.58
2019-04-25T02:53:07.259Z,96653.97
2019-04-25T02:55:36.924Z,96665.68
2019-04-25T02:58:05.646Z,96668.20
2019-04-25T03:00:47.695Z,96654.82
2019-04-25T03:03:02.735Z,96658.92
2019-04-25T03:05:30.800Z,96662.03
2019-04-25T03:07:59.386Z,96658.66
2019-04-25T03:10:27.111Z,96658.03
2019-04-25T03:12:54.539Z,96653.72
2019-04-25T03:15:24.400Z,96648.77
2019-04-25T03:17:51.341Z,96654.60
2019-04-25T03:20:26.512Z,96651.80
2019-04-25T03:22:54.753Z,96656.84
2019-04-25T03:25:24.620Z,96658.51
2019-04-25T03:27:51.111Z,96651.77
2019-04-25T03:30:18.420Z,96657.59
2019-04-25T03:32:45.548Z,96659.52
2019-04-25T03:35:13.620Z,96656.73
2019-04-25T03:37:43.308Z,96655.52
2019-04-25T03:40:11.759Z,96656.68
2019-04-25T03:42:39.979Z,96656.50
2019-04-25T03:45:07.634Z,96654.34
2019-04-25T03:47:34.840Z,96650.02
2019-04-25T03:50:06.112Z,96655.50
2019-04-25T03:52:34.910Z,96649.23
2019-04-25T03:55:07.255Z,96654.92
2019-04-25T03:57:34.238Z,96651.41
2019-04-25T04:00:05.941Z,96649.72
2019-04-25T04:02:34.267Z,96657.44
2019-04-25T04:05:01.452Z,96649.45
2019-04-25T04:07:28.368Z,96661.25
2019-04-25T04:09:55.536Z,96662.83
2019-04-25T04:12:24.299Z,96672.42
2019-04-25T04:14:51.443Z,96672.44
2019-04-25T04:17:29.380Z,96664.43
2019-04-25T04:19:59.734Z,96669.93
2019-04-25T04:22:28.547Z,96665.08
2019-04-25T04:24:57.391Z,96666.10
2019-04-25T04:27:24.301Z,96658.72
2019-04-25T04:29:51.920Z,96661.52
2019-04-25T04:32:19.002Z,96668.26
2019-04-25T04:34:45.881Z,96657.14
2019-04-25T04:37:14.779Z,96658.61
2019-04-25T04:39:43.701Z,96658.66
2019-04-25T04:42:11.682Z,96661.25
2019-04-25T04:44:38.590Z,96665.84
2019-04-25T04:47:05.810Z,96662.19
2019-04-25T04:49:34.119Z,96667.36
2019-04-25T04:52:01.316Z,96671.35
2019-04-25T04:54:28.427Z,96668.90
2019-04-25T04:56:55.367Z,96672.55
2019-04-25T04:59:24.815Z,96673.42
2019-04-25T05:02:10.638Z,96670.36
2019-04-25T05:04:46.165Z,96666.67
2019-04-25T05:07:23.682Z,96665.74
2019-04-25T05:09:51.306Z,96677.73
2019-04-25T05:12:18.325Z,96683.30
2019-04-25T05:14:45.922Z,96669.17
2019-04-25T05:17:15.156Z,96680.56
2019-04-25T05:19:43.442Z,96675.68
2019-04-25T05:22:10.648Z,96669.19
2019-04-25T05:24:37.659Z,96678.06
2019-04-25T05:27:04.624Z,96677.49
2019-04-25T05:29:31.763Z,96676.10
2019-04-25T05:31:58.828Z,96675.11
2019-04-25T05:34:26.010Z,96681.99
2019-04-25T05:36:53.874Z,96697.72
2019-04-25T05:39:21.972Z,96682.78
2019-04-25T05:42:04.276Z,96689.47
2019-04-25T05:44:34.215Z,96689.27
2019-04-25T05:47:01.768Z,96693.37
2019-04-25T05:49:28.825Z,96686.25
2019-04-25T05:51:58.166Z,96691.74
2019-04-25T05:54:25.672Z,96698.02
2019-04-25T05:56:53.759Z,96685.72
2019-04-25T05:59:21.891Z,96696.16
2019-04-25T06:01:49.008Z,96699.86
2019-04-25T06:04:17.840Z,96695.95
2019-04-25T06:06:44.991Z,96701.88
2019-04-25T06:09:14.942Z,96702.11
2019-04-25T06:11:43.901Z,96701.37
2019-04-25T06:14:13.591Z,96705.70
2019-04-25T06:16:41.632Z,96706.46
2019-04-25T06:19:19.600Z,96707.97
2019-04-25T06:21:45.791Z,96712.49
2019-04-25T06:24:30.219Z,96703.30
2019-04-25T06:26:59.284Z,96702.50
2019-04-25T06:29:28.143Z,96724.06
2019-04-25T06:32:06.045Z,96710.92
2019-04-25T06:34:25.430Z,96704.23
2019-04-25T06:36:53.661Z,96703.31
2019-04-25T06:39:21.972Z,96706.27
2019-04-25T06:41:49.380Z,96703.73
2019-04-25T06:44:34.989Z,96710.22
2019-04-25T06:47:19.015Z,96711.13
2019-04-25T06:49:47.078Z,96719.23
2019-04-25T06:52:14.437Z,96727.23
2019-04-25T06:54:41.627Z,96727.08
2019-04-25T06:57:08.678Z,96724.92
2019-04-25T06:59:39.529Z,96726.06
2019-04-25T07:02:04.803Z,96736.48
2019-04-25T07:04:31.613Z,96723.80
2019-04-25T07:07:09.684Z,96728.32
2019-04-25T07:09:30.022Z,96722.16
2019-04-25T07:11:58.255Z,96728.14
2019-04-25T07:14:26.727Z,96721.97
2019-04-25T07:16:54.044Z,96711.62
2019-04-25T07:19:21.527Z,96722.22
2019-04-25T07:21:48.575Z,96717.90
2019-04-25T07:24:17.477Z,96713.97
2019-04-25T07:27:03.859Z,96715.75
2019-04-25T07:29:40.321Z,96729.47
2019-04-25T07:32:10.506Z,96718.77
2019-04-25T07:34:37.962Z,96720.42
2019-04-25T07:37:05.112Z,96733.73
2019-04-25T07:39:33.953Z,96725.98
2019-04-25T07:42:01.681Z,96730.86
2019-04-25T07:44:45.386Z,96730.80
2019-04-25T07:46:57.955Z,96731.89
2019-04-25T07:49:26.646Z,96743.91
2019-04-25T07:51:54.259Z,96735.41
2019-04-25T07:54:21.310Z,96745.70
2019-04-25T07:56:48.323Z,96737.53
2019-04-25T07:59:15.371Z,96752.76
2019-04-25T08:01:43.629Z,96742.59
2019-04-25T08:04:11.442Z,96759.17
2019-04-25T08:06:38.726Z,96755.36
2019-04-25T08:09:08.831Z,96752.48
2019-04-25T08:11:36.234Z,96754.05
2019-04-25T08:14:10.381Z,96751.09
2019-04-25T08:16:45.495Z,96767.06
2019-04-25T08:19:13.626Z,96752.48
2019-04-25T08:21:41.028Z,96775.71
2019-04-25T08:24:08.401Z,96770.81
2019-04-25T08:26:36.444Z,96774.42
2019-04-25T08:29:04.828Z,96773.15
2019-04-25T08:31:34.831Z,96774.42
2019-04-25T08:34:01.241Z,96773.72
2019-04-25T08:36:28.451Z,96773.89
2019-04-25T08:38:55.627Z,96772.94
2019-04-25T08:41:23.921Z,96771.19
2019-04-25T08:43:50.963Z,96782.63
2019-04-25T08:46:17.880Z,96791.16
2019-04-25T08:49:06.136Z,96800.75
2019-04-25T08:51:37.929Z,96782.75
2019-04-25T08:54:24.368Z,96777.02
2019-04-25T08:56:53.546Z,96800.85
2019-04-25T08:59:44.260Z,96800.23
2019-04-25T09:02:10.705Z,96797.83
2019-04-25T09:04:43.018Z,96809.88
2019-04-25T09:07:13.477Z,96788.50
2019-04-25T09:09:41.163Z,96794.98
2019-04-25T09:12:08.312Z,96798.61
2019-04-25T09:14:36.482Z,96800.64
2019-04-25T09:17:04.163Z,96794.88
2019-04-25T09:19:31.882Z,96794.88
2019-04-25T09:21:58.982Z,96788.19
2019-04-25T09:24:26.263Z,96797.04
2019-04-25T09:26:54.099Z,96799.83
2019-04-25T09:29:21.251Z,96796.41
2019-04-25T09:31:48.247Z,96793.69
2019-04-25T09:34:15.225Z,96789.42
2019-04-25T09:36:43.932Z,96792.27
2019-04-25T09:39:25.452Z,96784.45
2019-04-25T09:41:53.466Z,96789.83
2019-04-25T09:44:23.944Z,96781.19
2019-04-25T09:46:51.201Z,96786.69
2019-04-25T09:49:21.462Z,96785.30
2019-04-25T09:51:53.419Z,96790.61
2019-04-25T09:54:33.437Z,96797.11
2019-04-25T09:57:05.396Z,96783.54
2019-04-25T09:59:33.190Z,96782.50
2019-04-25T10:02:01.519Z,96759.45
2019-04-25T10:04:28.765Z,96770.50
2019-04-25T10:06:55.830Z,96773.41
2019-04-25T10:09:23.954Z,96760.67
2019-04-25T10:11:51.111Z,96760.99
2019-04-25T10:14:57.430Z,96756.08
2019-04-25T10:17:24.678Z,96771.55
2019-04-25T10:19:51.763Z,96761.56
2019-04-25T10:22:18.981Z,96768.19
2019-04-25T10:24:58.379Z,96761.86
2019-04-25T10:27:15.703Z,96767.31
2019-04-25T10:29:52.767Z,96761.39
2019-04-25T10:32:13.311Z,96760.99
2019-04-25T10:34:41.566Z,96762.41
2019-04-25T10:37:08.431Z,96759.25
2019-04-25T10:39:35.587Z,96756.69
2019-04-25T10:42:03.588Z,96762.27
2019-04-25T10:44:30.933Z,96763.11
2019-04-25T10:46:58.031Z,96771.59
2019-04-25T10:49:25.244Z,96762.36
2019-04-25T10:51:52.667Z,96771.28
2019-04-25T10:54:20.296Z,96758.56
2019-04-25T10:56:48.316Z,96762.91
2019-04-25T11:03:22.316Z,96759.73
2019-04-25T11:05:49.819Z,96760.78
2019-04-25T11:08:17.360Z,96767.36
2019-04-25T11:10:46.982Z,96757.14
2019-04-25T11:13:14.384Z,96769.85
2019-04-25T11:15:41.983Z,96771.94
2019-04-25T11:18:09.772Z,96764.63
2019-04-25T11:20:37.856Z,96759.04
2019-04-25T11:23:04.863Z,96761.83
2019-04-25T11:25:31.947Z,96759.16
2019-04-25T11:27:59.303Z,96765.45
2019-04-25T11:30:28.073Z,96766.44
2019-04-25T11:32:56.215Z,96772.80
2019-04-25T11:35:24.179Z,96765.83
2019-04-25T11:37:53.235Z,96754.91
2019-04-25T11:40:28.486Z,96767.45
2019-04-25T11:42:55.526Z,96758.17
2019-04-25T11:45:23.024Z,96755.39
2019-04-25T11:47:49.895Z,96764.50
2019-04-25T11:50:17.525Z,96758.64
2019-04-25T11:52:44.509Z,96760.03
2019-04-25T11:55:14.242Z,96759.38
2019-04-25T11:57:43.943Z,96757.82
2019-04-25T12:00:21.573Z,96764.52
2019-04-25T12:02:40.229Z,96756.16
2019-04-25T12:05:07.975Z,96766.45
2019-04-25T12:07:35.309Z,96764.01
2019-04-25T12:10:06.507Z,96764.17
2019-04-25T12:12:34.716Z,96756.21
2019-04-25T12:15:06.874Z,96759.50
2019-04-25T12:17:35.295Z,96759.17
2019-04-25T12:20:04.282Z,96763.97
2019-04-25T12:22:31.464Z,96770.59
2019-04-25T12:24:58.427Z,96762.63
2019-04-25T12:27:25.604Z,96763.80
2019-04-25T12:29:52.614Z,96764.96
2019-04-25T12:32:20.404Z,96770.94
2019-04-25T12:34:47.542Z,96764.91
2019-04-25T12:37:14.399Z,96766.39
2019-04-25T12:39:41.786Z,96779.53
2019-04-25T12:42:09.327Z,96767.32
2019-04-25T12:44:39.200Z,96762.01
2019-04-25T12:47:08.095Z,96764.56
2019-04-25T12:49:36.047Z,96761.63
2019-04-25T12:52:03.315Z,96768.25
2019-04-25T12:54:30.390Z,96778.53
2019-04-25T12:56:57.469Z,96771.95
2019-04-25T12:59:24.648Z,96776.63
2019-04-25T13:01:53.657Z,96763.78
2019-04-25T13:04:20.656Z,96764.22
2019-04-25T13:06:48.693Z,96763.94
2019-04-25T13:09:15.930Z,96773.84
2019-04-25T13:11:43.483Z,96768.81
2019-04-25T13:14:10.670Z,96772.13
2019-04-25T13:16:37.882Z,96763.92
2019-04-25T13:19:16.497Z,96754.53
2019-04-25T13:21:34.122Z,96759.25
2019-04-25T13:24:01.106Z,96762.91
2019-04-25T13:26:30.091Z,96758.92
2019-04-25T13:29:05.237Z,96750.58
2019-04-25T13:31:34.140Z,96762.66
2019-04-25T13:34:04.629Z,96753.36
2019-04-25T13:36:32.959Z,96746.94
2019-04-25T13:39:02.211Z,96746.59
2019-04-25T13:41:29.547Z,96740.67
2019-04-25T13:43:57.678Z,96742.50
2019-04-25T13:46:26.619Z,96743.96
2019-04-25T13:48:54.399Z,96741.97
2019-04-25T13:51:23.017Z,96739.55
2019-04-25T13:53:50.926Z,96735.70
2019-04-25T13:56:18.115Z,96748.82
2019-04-25T13:58:45.033Z,96728.50
2019-04-25T14:01:17.117Z,96735.09
2019-04-25T14:03:44.414Z,96742.15
2019-04-25T14:06:11.638Z,96733.63
2019-04-25T14:08:38.732Z,96737.27
2019-04-25T14:11:25.926Z,96729.71
2019-04-25T14:13:53.214Z,96734.66
2019-04-25T14:16:34.600Z,96733.20
2019-04-25T14:19:10.590Z,96727.97
2019-04-25T14:21:37.783Z,96729.03
2019-04-25T14:24:04.997Z,96725.97
2019-04-25T14:26:32.428Z,96727.47
2019-04-25T14:28:59.202Z,96722.94
2019-04-25T14:31:41.093Z,96730.06
2019-04-25T14:33:54.938Z,96735.70
2019-04-25T14:36:24.769Z,96721.20
2019-04-25T14:38:51.385Z,96733.20
2019-04-25T14:41:18.895Z,96722.58
2019-04-25T14:43:46.486Z,96724.08
2019-04-25T14:46:14.156Z,96730.06
2019-04-25T14:48:41.237Z,96723.29
2019-04-25T14:51:10.718Z,96723.29
2019-04-25T14:53:37.315Z,96731.70
2019-04-25T14:56:23.673Z,96719.19
2019-04-25T14:58:51.083Z,96726.48
2019-04-25T15:01:19.961Z,96714.75
2019-04-25T15:03:46.867Z,96712.64
2019-04-25T15:06:13.868Z,96712.28
2019-04-25T15:08:40.896Z,96714.70
2019-04-25T15:11:07.805Z,96716.80
2019-04-25T15:13:35.270Z,96703.94
2019-04-25T15:16:04.824Z,96707.31
2019-04-25T15:18:31.444Z,96704.18
2019-04-25T15:20:58.654Z,96697.66
2019-04-25T15:23:28.120Z,96692.56
2019-04-25T15:25:54.957Z,96692.39
2019-04-25T15:28:21.857Z,96697.94
2019-04-25T15:30:49.129Z,96690.22
2019-04-25T15:33:16.680Z,96692.99
2019-04-25T15:35:52.506Z,96693.23
2019-04-25T15:38:36.813Z,96693.52
2019-04-25T15:41:05.477Z,96690.80
2019-04-25T15:43:38.017Z,96686.88
2019-04-25T15:46:07.859Z,96689.93
2019-04-25T15:48:35.146Z,96684.02
2019-04-25T15:51:02.541Z,96684.08
2019-04-25T15:53:29.430Z,96679.13
2019-04-25T15:55:56.306Z,96674.03
2019-04-25T15:58:23.386Z,96679.05
2019-04-25T16:00:50.789Z,96675.55
2019-04-25T16:03:17.702Z,96675.22
2019-04-25T16:05:44.664Z,96679.20
2019-04-25T16:08:12.117Z,96672.33
2019-04-25T16:10:39.176Z,96668.86
2019-04-25T16:13:06.408Z,96673.45
2019-04-25T16:15:33.435Z,96669.98
2019-04-25T16:18:00.498Z,96676.55
2019-04-25T16:20:28.239Z,96672.45
2019-04-25T16:22:56.338Z,96674.53
2019-04-25T16:25:23.588Z,96673.17
2019-04-25T16:27:50.504Z,96672.05
2019-04-25T16:30:19.706Z,96673.14
2019-04-25T16:32:46.521Z,96674.06
2019-04-25T16:35:13.283Z,96671.38
2019-04-25T16:37:41.279Z,96677.17
2019-04-25T16:40:10.857Z,96678.27
2019-04-25T16:42:38.021Z,96676.58
2019-04-25T16:45:07.086Z,96678.28
2019-04-25T16:47:35.155Z,96671.06
2019-04-25T16:50:05.153Z,96670.94
2019-04-25T16:52:32.557Z,96671.63
2019-04-25T16:54:59.576Z,96670.73
2019-04-25T16:57:26.659Z,96666.27
2019-04-25T16:59:53.887Z,96675.26
2019-04-25T17:02:32.505Z,96674.19
2019-04-25T17:04:51.074Z,96669.94
2019-04-25T17:07:18.089Z,96674.64
2019-04-25T17:09:45.244Z,96682.09
2019-04-25T17:12:12.657Z,96682.03
2019-04-25T17:14:50.438Z,96685.92
2019-04-25T17:17:21.292Z,96688.62
2019-04-25T17:19:56.937Z,96686.37
2019-04-25T17:22:24.372Z,96682.94
2019-04-25T17:24:51.757Z,96683.04
2019-04-25T17:27:19.761Z,96683.74
2019-04-25T17:29:46.724Z,96683.03
2019-04-25T17:32:15.681Z,96684.70
2019-04-25T17:34:45.666Z,96685.33
2019-04-25T17:37:20.125Z,96685.80
2019-04-25T17:39:49.147Z,96687.47
2019-04-25T17:42:16.413Z,96694.23
2019-04-25T17:44:43.286Z,96693.51
2019-04-25T17:47:11.452Z,96694.52
2019-04-25T17:49:39.404Z,96699.89
2019-04-25T17:52:06.461Z,96700.16
2019-04-25T17:54:34.218Z,96700.25
2019-04-25T17:57:01.375Z,96706.63
2019-04-25T17:59:28.274Z,96706.84
2019-04-25T18:01:55.132Z,96716.54
2019-04-25T18:04:21.926Z,96712.45
2019-04-25T18:06:48.928Z,96719.39
2019-04-25T18:09:15.715Z,96720.03
2019-04-25T18:11:42.926Z,96718.30
2019-04-25T18:14:10.042Z,96722.49
2019-04-25T18:16:44.974Z,96725.28
2019-04-25T18:19:14.022Z,96722.94
2019-04-25T18:21:40.838Z,96724.98
2019-04-25T18:24:26.780Z,96732.34
2019-04-25T18:27:01.369Z,96740.70
2019-04-25T18:29:28.763Z,96743.69
2019-04-25T18:31:55.962Z,96740.00
2019-04-25T18:34:40.112Z,96745.92
2019-04-25T18:37:09.938Z,96747.11
2019-04-25T18:39:38.637Z,96748.53
2019-04-25T18:42:23.453Z,96745.19
2019-04-25T18:44:50.741Z,96745.99
2019-04-25T18:47:17.600Z,96745.05
2019-04-25T18:49:46.730Z,96752.80
2019-04-25T18:52:21.583Z,96757.78
2019-04-25T18:54:59.512Z,96764.92
2019-04-25T18:57:47.235Z,96762.37
2019-04-25T19:00:33.335Z,96766.38
2019-04-25T19:03:06.345Z,96763.66
2019-04-25T19:05:45.111Z,96767.05
2019-04-25T19:08:12.359Z,96767.72
2019-04-25T19:10:39.584Z,96762.83
2019-04-25T19:13:12.765Z,96766.20
2019-04-25T19:15:35.912Z,96768.80
2019-04-25T19:18:02.985Z,96765.30
2019-04-25T19:20:30.033Z,96771.81
2019-04-25T19:22:57.596Z,96773.41
2019-04-25T19:25:25.869Z,96773.58
2019-04-25T19:27:54.283Z,96774.02
2019-04-25T19:30:21.285Z,96774.81
2019-04-25T19:32:49.131Z,96776.97
2019-04-25T19:35:16.209Z,96776.39
2019-04-25T19:37:43.866Z,96774.20
2019-04-25T19:40:11.774Z,96765.96
2019-04-25T19:42:44.481Z,96770.87
2019-04-25T19:45:11.765Z,96774.04
2019-04-25T19:47:38.665Z,96768.92
2019-04-25T19:50:05.720Z,96769.31
2019-04-25T19:52:32.591Z,96773.62
2019-04-25T19:54:59.550Z,96769.51
2019-04-25T19:57:26.510Z,96771.07
2019-04-25T19:59:54.499Z,96774.80
2019-04-25T20:02:29.496Z,96774.61
2019-04-25T20:05:04.542Z,96773.60
2019-04-25T20:07:33.406Z,96775.76
2019-04-25T20:10:02.888Z,96772.03
2019-04-25T20:12:31.656Z,96772.98
2019-04-25T20:14:58.691Z,96769.41
2019-04-25T20:17:25.785Z,96774.88
2019-04-25T20:19:55.696Z,96769.16
2019-04-25T20:22:22.709Z,96774.63
2019-04-25T20:24:50.389Z,96773.44
2019-04-25T20:27:17.851Z,96770.48
2019-04-25T20:29:45.258Z,96774.38
2019-04-25T20:32:13.494Z,96774.77
2019-04-25T20:34:40.473Z,96769.66
2019-04-25T20:37:07.777Z,96771.00
2019-04-25T20:39:36.236Z,96772.38
2019-04-25T20:42:03.321Z,96778.05
2019-04-25T20:44:30.565Z,96768.19
2019-04-25T20:46:57.950Z,96775.64
2019-04-25T20:49:24.853Z,96775.02
2019-04-25T20:51:52.621Z,96770.11
2019-04-25T20:54:19.741Z,96768.13
2019-04-25T20:56:46.892Z,96762.63
2019-04-25T20:59:14.710Z,96770.83
2019-04-25T21:01:41.570Z,96762.59
2019-04-25T21:04:13.261Z,96762.35
2019-04-25T21:06:42.414Z,96766.64
2019-04-25T21:09:10.989Z,96770.48
2019-04-25T21:11:37.925Z,96767.86
2019-04-25T21:14:05.181Z,96767.59
2019-04-25T21:16:51.781Z,96771.04
2019-04-25T21:19:36.125Z,96766.66
2019-04-25T21:22:03.183Z,96762.07
2019-04-25T21:24:30.220Z,96764.55
2019-04-25T21:26:57.193Z,96762.33
2019-04-25T21:29:24.224Z,96758.58
2019-04-25T21:31:52.488Z,96761.06
2019-04-25T21:34:25.770Z,96760.05
2019-04-25T21:36:48.625Z,96764.26
2019-04-25T21:39:21.018Z,96768.67
2019-04-25T21:41:48.258Z,96758.56
2019-04-25T21:44:17.688Z,96764.87
2019-04-25T21:46:44.552Z,96761.94
2019-04-25T21:49:11.788Z,96758.09
2019-04-25T21:51:39.107Z,96755.63
2019-04-25T21:54:06.147Z,96771.83
2019-04-25T21:56:33.533Z,96762.55
2019-04-25T21:59:00.775Z,96759.69
2019-04-25T22:01:32.762Z,96758.59
2019-04-25T22:04:00.715Z,96762.79
2019-04-25T22:06:28.313Z,96754.48
2019-04-25T22:08:56.615Z,96761.66
2019-04-25T22:11:25.024Z,96762.70
2019-04-25T22:13:52.331Z,96753.03
2019-04-25T22:16:19.876Z,96759.98
2019-04-25T22:18:47.382Z,96760.85
2019-04-25T22:21:14.811Z,96760.81
2019-04-25T22:23:41.997Z,96756.00
2019-04-25T22:26:09.156Z,96747.29
2019-04-25T22:28:36.248Z,96748.98
2019-04-25T22:31:05.544Z,96742.67
2019-04-25T22:33:51.263Z,96739.30
2019-04-25T22:36:23.141Z,96743.03
2019-04-25T22:39:08.694Z,96741.23
2019-04-25T22:41:38.043Z,96734.94
2019-04-25T22:44:07.036Z,96744.00
2019-04-25T22:46:35.072Z,96740.72
2019-04-25T22:49:03.455Z,96740.03
2019-04-25T22:51:30.803Z,96733.72
2019-04-25T22:53:58.250Z,96728.36
2019-04-25T22:56:25.152Z,96731.95
2019-04-25T22:58:52.338Z,96728.02
2019-04-25T23:01:38.265Z,96724.63
2019-04-25T23:04:25.416Z,96711.69
2019-04-25T23:06:52.406Z,96710.89
2019-04-25T23:09:19.562Z,96705.02
2019-04-25T23:11:46.737Z,96701.42
2019-04-25T23:14:14.075Z,96705.66
2019-04-25T23:16:40.836Z,96705.66
2019-04-25T23:19:07.862Z,96708.39
2019-04-25T23:21:35.473Z,96704.47
2019-04-25T23:24:03.418Z,96706.98
2019-04-25T23:26:31.965Z,96696.98
2019-04-25T23:29:02.333Z,96697.16
2019-04-25T23:31:31.237Z,96695.70
2019-04-25T23:33:58.514Z,96693.28
2019-04-25T23:36:25.414Z,96694.58
2019-04-25T23:38:52.279Z,96700.03
2019-04-25T23:41:19.600Z,96688.10
2019-04-25T23:43:46.441Z,96682.42
2019-04-25T23:46:14.193Z,96680.56
2019-04-25T23:48:41.443Z,96681.62
2019-04-25T23:51:08.792Z,96676.02
2019-04-25T23:53:36.263Z,96679.75
2019-04-25T23:56:03.517Z,96674.07
2019-04-25T23:58:34.795Z,96677.73
